sensor_id;sensor_type;location;lat;lon;timestamp;P1;durP1;ratioP1;P2;durP2;ratioP2
58468;SDS011;44257;44.804;10.220;2023-04-15T00:01:27;5.32;;;1.20;;
58468;SDS011;44257;44.804;10.220;2023-04-15T00:03:54;3.03;;;1.00;;
58468;SDS011;44257;44.804;10.220;2023-04-15T00:06:21;5.28;;;0.90;;
58468;SDS011;44257;44.804;10.220;2023-04-15T00:08:47;4.57;;;1.02;;
58468;SDS011;44257;44.804;10.220;2023-04-15T00:11:15;7.07;;;0.80;;
58468;SDS011;44257;44.804;10.220;2023-04-15T00:13:41;2.35;;;0.60;;
58468;SDS011;44257;44.804;10.220;2023-04-15T00:16:08;3.67;;;1.08;;
58468;SDS011;44257;44.804;10.220;2023-04-15T00:18:35;3.03;;;0.70;;
58468;SDS011;44257;44.804;10.220;2023-04-15T00:21:01;1.67;;;0.50;;
58468;SDS011;44257;44.804;10.220;2023-04-15T00:23:28;2.05;;;0.68;;
58468;SDS011;44257;44.804;10.220;2023-04-15T00:25:54;7.22;;;1.00;;
58468;SDS011;44257;44.804;10.220;2023-04-15T00:28:21;3.92;;;0.77;;
58468;SDS011;44257;44.804;10.220;2023-04-15T00:30:47;4.30;;;1.23;;
58468;SDS011;44257;44.804;10.220;2023-04-15T00:33:14;4.20;;;0.73;;
58468;SDS011;44257;44.804;10.220;2023-04-15T00:35:43;5.10;;;0.73;;
58468;SDS011;44257;44.804;10.220;2023-04-15T00:38:09;2.90;;;0.95;;
58468;SDS011;44257;44.804;10.220;2023-04-15T00:40:35;4.03;;;0.80;;
58468;SDS011;44257;44.804;10.220;2023-04-15T00:43:03;2.50;;;0.70;;
58468;SDS011;44257;44.804;10.220;2023-04-15T00:45:29;2.78;;;0.70;;
58468;SDS011;44257;44.804;10.220;2023-04-15T00:47:56;6.60;;;1.05;;
58468;SDS011;44257;44.804;10.220;2023-04-15T00:50:22;6.10;;;0.82;;
58468;SDS011;44257;44.804;10.220;2023-04-15T00:52:48;2.95;;;0.50;;
58468;SDS011;44257;44.804;10.220;2023-04-15T00:55:14;6.03;;;0.93;;
58468;SDS011;44257;44.804;10.220;2023-04-15T00:57:40;5.15;;;0.73;;
58468;SDS011;44257;44.804;10.220;2023-04-15T01:00:07;1.90;;;0.70;;
58468;SDS011;44257;44.804;10.220;2023-04-15T01:02:34;4.40;;;0.80;;
58468;SDS011;44257;44.804;10.220;2023-04-15T01:05:00;5.00;;;0.70;;
58468;SDS011;44257;44.804;10.220;2023-04-15T01:07:27;3.22;;;0.90;;
58468;SDS011;44257;44.804;10.220;2023-04-15T01:09:52;6.10;;;1.00;;
58468;SDS011;44257;44.804;10.220;2023-04-15T01:12:18;3.53;;;0.50;;
58468;SDS011;44257;44.804;10.220;2023-04-15T01:14:45;5.10;;;0.85;;
58468;SDS011;44257;44.804;10.220;2023-04-15T01:17:11;3.05;;;0.90;;
58468;SDS011;44257;44.804;10.220;2023-04-15T01:19:38;4.25;;;0.88;;
58468;SDS011;44257;44.804;10.220;2023-04-15T01:22:06;3.45;;;1.15;;
58468;SDS011;44257;44.804;10.220;2023-04-15T01:24:32;3.20;;;0.70;;
58468;SDS011;44257;44.804;10.220;2023-04-15T01:26:59;2.50;;;0.80;;
58468;SDS011;44257;44.804;10.220;2023-04-15T01:29:25;2.25;;;0.80;;
58468;SDS011;44257;44.804;10.220;2023-04-15T01:31:52;2.53;;;0.70;;
58468;SDS011;44257;44.804;10.220;2023-04-15T01:34:20;2.22;;;0.60;;
58468;SDS011;44257;44.804;10.220;2023-04-15T01:36:46;4.97;;;0.98;;
58468;SDS011;44257;44.804;10.220;2023-04-15T01:39:12;5.45;;;0.93;;
58468;SDS011;44257;44.804;10.220;2023-04-15T01:41:39;2.95;;;0.70;;
58468;SDS011;44257;44.804;10.220;2023-04-15T01:44:06;2.17;;;0.65;;
58468;SDS011;44257;44.804;10.220;2023-04-15T01:46:33;1.92;;;0.50;;
58468;SDS011;44257;44.804;10.220;2023-04-15T01:49:00;3.13;;;0.70;;
58468;SDS011;44257;44.804;10.220;2023-04-15T01:51:26;2.40;;;0.52;;
58468;SDS011;44257;44.804;10.220;2023-04-15T01:53:52;1.75;;;0.50;;
58468;SDS011;44257;44.804;10.220;2023-04-15T01:56:22;3.45;;;0.55;;
58468;SDS011;44257;44.804;10.220;2023-04-15T01:58:50;4.90;;;0.77;;
58468;SDS011;44257;44.804;10.220;2023-04-15T02:01:17;3.60;;;1.15;;
58468;SDS011;44257;44.804;10.220;2023-04-15T02:03:46;3.15;;;0.57;;
58468;SDS011;44257;44.804;10.220;2023-04-15T02:06:13;3.72;;;0.95;;
58468;SDS011;44257;44.804;10.220;2023-04-15T02:08:39;3.70;;;0.75;;
58468;SDS011;44257;44.804;10.220;2023-04-15T02:11:06;3.13;;;0.55;;
58468;SDS011;44257;44.804;10.220;2023-04-15T02:13:32;4.03;;;0.70;;
58468;SDS011;44257;44.804;10.220;2023-04-15T02:15:58;2.22;;;0.60;;
58468;SDS011;44257;44.804;10.220;2023-04-15T02:18:24;1.15;;;0.55;;
58468;SDS011;44257;44.804;10.220;2023-04-15T02:20:51;2.58;;;0.70;;
58468;SDS011;44257;44.804;10.220;2023-04-15T02:23:17;2.90;;;0.75;;
58468;SDS011;44257;44.804;10.220;2023-04-15T02:25:42;1.75;;;0.70;;
58468;SDS011;44257;44.804;10.220;2023-04-15T02:28:08;4.30;;;0.80;;
58468;SDS011;44257;44.804;10.220;2023-04-15T02:30:35;2.55;;;0.80;;
58468;SDS011;44257;44.804;10.220;2023-04-15T02:33:01;7.60;;;0.80;;
58468;SDS011;44257;44.804;10.220;2023-04-15T02:35:27;2.63;;;0.60;;
58468;SDS011;44257;44.804;10.220;2023-04-15T02:37:53;2.25;;;0.73;;
58468;SDS011;44257;44.804;10.220;2023-04-15T02:40:20;4.80;;;0.80;;
58468;SDS011;44257;44.804;10.220;2023-04-15T02:42:46;2.95;;;0.70;;
58468;SDS011;44257;44.804;10.220;2023-04-15T02:45:14;1.95;;;0.68;;
58468;SDS011;44257;44.804;10.220;2023-04-15T02:47:41;6.78;;;0.98;;
58468;SDS011;44257;44.804;10.220;2023-04-15T02:50:10;2.55;;;0.80;;
58468;SDS011;44257;44.804;10.220;2023-04-15T02:52:41;2.17;;;1.17;;
58468;SDS011;44257;44.804;10.220;2023-04-15T02:55:08;4.97;;;0.88;;
58468;SDS011;44257;44.804;10.220;2023-04-15T02:57:35;1.40;;;0.63;;
58468;SDS011;44257;44.804;10.220;2023-04-15T03:00:05;5.13;;;0.85;;
58468;SDS011;44257;44.804;10.220;2023-04-15T03:02:35;4.85;;;0.90;;
58468;SDS011;44257;44.804;10.220;2023-04-15T03:05:03;1.45;;;0.57;;
58468;SDS011;44257;44.804;10.220;2023-04-15T03:07:30;2.83;;;0.75;;
58468;SDS011;44257;44.804;10.220;2023-04-15T03:09:57;6.97;;;0.90;;
58468;SDS011;44257;44.804;10.220;2023-04-15T03:12:23;2.45;;;0.68;;
58468;SDS011;44257;44.804;10.220;2023-04-15T03:14:53;4.25;;;1.23;;
58468;SDS011;44257;44.804;10.220;2023-04-15T03:19:51;2.05;;;0.65;;
58468;SDS011;44257;44.804;10.220;2023-04-15T03:22:17;5.00;;;1.08;;
58468;SDS011;44257;44.804;10.220;2023-04-15T03:24:43;1.25;;;0.80;;
58468;SDS011;44257;44.804;10.220;2023-04-15T03:27:09;3.67;;;1.40;;
58468;SDS011;44257;44.804;10.220;2023-04-15T03:29:35;3.03;;;1.20;;
58468;SDS011;44257;44.804;10.220;2023-04-15T03:32:01;3.42;;;0.73;;
58468;SDS011;44257;44.804;10.220;2023-04-15T03:34:31;1.55;;;0.80;;
58468;SDS011;44257;44.804;10.220;2023-04-15T03:36:58;2.22;;;1.00;;
58468;SDS011;44257;44.804;10.220;2023-04-15T03:39:24;5.43;;;0.55;;
58468;SDS011;44257;44.804;10.220;2023-04-15T03:41:50;2.22;;;0.80;;
58468;SDS011;44257;44.804;10.220;2023-04-15T03:44:15;6.13;;;1.02;;
58468;SDS011;44257;44.804;10.220;2023-04-15T03:46:41;1.52;;;0.88;;
58468;SDS011;44257;44.804;10.220;2023-04-15T03:49:07;2.63;;;0.93;;
58468;SDS011;44257;44.804;10.220;2023-04-15T03:51:33;1.75;;;0.80;;
58468;SDS011;44257;44.804;10.220;2023-04-15T03:53:59;3.97;;;1.10;;
58468;SDS011;44257;44.804;10.220;2023-04-15T03:56:26;2.63;;;0.73;;
58468;SDS011;44257;44.804;10.220;2023-04-15T03:58:52;3.30;;;1.05;;
58468;SDS011;44257;44.804;10.220;2023-04-15T04:01:18;5.82;;;0.98;;
58468;SDS011;44257;44.804;10.220;2023-04-15T04:03:44;2.42;;;1.00;;
58468;SDS011;44257;44.804;10.220;2023-04-15T04:06:10;2.00;;;0.80;;
58468;SDS011;44257;44.804;10.220;2023-04-15T04:08:36;2.10;;;0.70;;
58468;SDS011;44257;44.804;10.220;2023-04-15T04:11:03;1.05;;;0.60;;
58468;SDS011;44257;44.804;10.220;2023-04-15T04:13:30;2.90;;;1.00;;
58468;SDS011;44257;44.804;10.220;2023-04-15T04:15:56;3.30;;;0.88;;
58468;SDS011;44257;44.804;10.220;2023-04-15T04:18:21;2.78;;;0.70;;
58468;SDS011;44257;44.804;10.220;2023-04-15T04:20:47;2.05;;;1.05;;
58468;SDS011;44257;44.804;10.220;2023-04-15T04:23:13;1.15;;;0.63;;
58468;SDS011;44257;44.804;10.220;2023-04-15T04:25:39;3.42;;;1.10;;
58468;SDS011;44257;44.804;10.220;2023-04-15T04:28:05;1.63;;;0.70;;
58468;SDS011;44257;44.804;10.220;2023-04-15T04:30:31;2.53;;;0.88;;
58468;SDS011;44257;44.804;10.220;2023-04-15T04:32:57;2.25;;;0.90;;
58468;SDS011;44257;44.804;10.220;2023-04-15T04:35:23;3.10;;;1.10;;
58468;SDS011;44257;44.804;10.220;2023-04-15T04:37:49;3.30;;;1.25;;
58468;SDS011;44257;44.804;10.220;2023-04-15T04:40:15;1.95;;;1.10;;
58468;SDS011;44257;44.804;10.220;2023-04-15T04:42:40;5.90;;;1.17;;
58468;SDS011;44257;44.804;10.220;2023-04-15T04:45:06;5.43;;;1.10;;
58468;SDS011;44257;44.804;10.220;2023-04-15T04:47:32;3.30;;;1.30;;
58468;SDS011;44257;44.804;10.220;2023-04-15T04:49:58;2.85;;;0.95;;
58468;SDS011;44257;44.804;10.220;2023-04-15T04:52:25;2.70;;;0.98;;
58468;SDS011;44257;44.804;10.220;2023-04-15T04:54:51;3.05;;;1.42;;
58468;SDS011;44257;44.804;10.220;2023-04-15T04:57:17;4.70;;;1.40;;
58468;SDS011;44257;44.804;10.220;2023-04-15T04:59:42;2.55;;;0.85;;
58468;SDS011;44257;44.804;10.220;2023-04-15T05:02:08;3.17;;;1.23;;
58468;SDS011;44257;44.804;10.220;2023-04-15T05:04:34;4.97;;;1.38;;
58468;SDS011;44257;44.804;10.220;2023-04-15T05:07:01;4.53;;;1.60;;
58468;SDS011;44257;44.804;10.220;2023-04-15T05:09:26;2.83;;;0.98;;
58468;SDS011;44257;44.804;10.220;2023-04-15T05:11:53;3.20;;;1.20;;
58468;SDS011;44257;44.804;10.220;2023-04-15T05:14:20;3.72;;;1.27;;
58468;SDS011;44257;44.804;10.220;2023-04-15T05:16:46;1.92;;;0.93;;
58468;SDS011;44257;44.804;10.220;2023-04-15T05:19:12;4.40;;;1.33;;
58468;SDS011;44257;44.804;10.220;2023-04-15T05:21:38;7.15;;;1.20;;
58468;SDS011;44257;44.804;10.220;2023-04-15T05:24:03;3.20;;;1.42;;
58468;SDS011;44257;44.804;10.220;2023-04-15T05:26:31;3.70;;;1.10;;
58468;SDS011;44257;44.804;10.220;2023-04-15T05:28:57;2.92;;;1.55;;
58468;SDS011;44257;44.804;10.220;2023-04-15T05:31:22;4.70;;;0.90;;
58468;SDS011;44257;44.804;10.220;2023-04-15T05:33:48;3.38;;;1.20;;
58468;SDS011;44257;44.804;10.220;2023-04-15T05:36:14;2.38;;;1.00;;
58468;SDS011;44257;44.804;10.220;2023-04-15T05:38:40;3.72;;;1.63;;
58468;SDS011;44257;44.804;10.220;2023-04-15T05:41:06;3.20;;;1.30;;
58468;SDS011;44257;44.804;10.220;2023-04-15T05:43:32;5.88;;;1.27;;
58468;SDS011;44257;44.804;10.220;2023-04-15T05:45:58;1.92;;;1.05;;
58468;SDS011;44257;44.804;10.220;2023-04-15T05:48:24;4.93;;;1.52;;
58468;SDS011;44257;44.804;10.220;2023-04-15T05:50:50;2.97;;;1.30;;
58468;SDS011;44257;44.804;10.220;2023-04-15T05:53:16;1.40;;;0.90;;
58468;SDS011;44257;44.804;10.220;2023-04-15T05:55:42;5.63;;;1.40;;
58468;SDS011;44257;44.804;10.220;2023-04-15T05:58:07;4.05;;;1.10;;
58468;SDS011;44257;44.804;10.220;2023-04-15T06:00:33;3.58;;;1.10;;
58468;SDS011;44257;44.804;10.220;2023-04-15T06:02:59;5.50;;;1.38;;
58468;SDS011;44257;44.804;10.220;2023-04-15T06:05:25;4.00;;;1.45;;
58468;SDS011;44257;44.804;10.220;2023-04-15T06:07:51;3.97;;;1.10;;
58468;SDS011;44257;44.804;10.220;2023-04-15T06:10:17;3.35;;;1.40;;
58468;SDS011;44257;44.804;10.220;2023-04-15T06:12:43;4.28;;;0.98;;
58468;SDS011;44257;44.804;10.220;2023-04-15T06:15:10;7.30;;;1.38;;
58468;SDS011;44257;44.804;10.220;2023-04-15T06:17:36;2.05;;;1.10;;
58468;SDS011;44257;44.804;10.220;2023-04-15T06:20:02;3.88;;;1.20;;
58468;SDS011;44257;44.804;10.220;2023-04-15T06:22:28;7.35;;;1.48;;
58468;SDS011;44257;44.804;10.220;2023-04-15T06:24:54;5.65;;;1.80;;
58468;SDS011;44257;44.804;10.220;2023-04-15T06:27:20;7.18;;;1.70;;
58468;SDS011;44257;44.804;10.220;2023-04-15T06:29:47;3.90;;;1.73;;
58468;SDS011;44257;44.804;10.220;2023-04-15T06:32:13;3.05;;;1.50;;
58468;SDS011;44257;44.804;10.220;2023-04-15T06:34:38;4.68;;;2.60;;
58468;SDS011;44257;44.804;10.220;2023-04-15T06:37:04;7.40;;;2.22;;
58468;SDS011;44257;44.804;10.220;2023-04-15T06:39:30;4.72;;;1.92;;
58468;SDS011;44257;44.804;10.220;2023-04-15T06:41:56;3.78;;;2.20;;
58468;SDS011;44257;44.804;10.220;2023-04-15T06:44:22;5.78;;;2.38;;
58468;SDS011;44257;44.804;10.220;2023-04-15T06:46:48;4.13;;;2.08;;
58468;SDS011;44257;44.804;10.220;2023-04-15T06:49:14;4.57;;;2.53;;
58468;SDS011;44257;44.804;10.220;2023-04-15T06:51:40;5.00;;;2.55;;
58468;SDS011;44257;44.804;10.220;2023-04-15T06:54:07;3.60;;;1.90;;
58468;SDS011;44257;44.804;10.220;2023-04-15T06:56:32;6.75;;;2.13;;
58468;SDS011;44257;44.804;10.220;2023-04-15T06:58:58;3.70;;;2.40;;
58468;SDS011;44257;44.804;10.220;2023-04-15T07:01:25;2.85;;;1.90;;
58468;SDS011;44257;44.804;10.220;2023-04-15T07:03:51;4.65;;;2.38;;
58468;SDS011;44257;44.804;10.220;2023-04-15T07:06:17;5.13;;;2.58;;
58468;SDS011;44257;44.804;10.220;2023-04-15T07:08:42;6.50;;;3.08;;
58468;SDS011;44257;44.804;10.220;2023-04-15T07:11:09;7.35;;;4.03;;
58468;SDS011;44257;44.804;10.220;2023-04-15T07:13:34;6.13;;;3.13;;
58468;SDS011;44257;44.804;10.220;2023-04-15T07:16:00;8.38;;;4.07;;
58468;SDS011;44257;44.804;10.220;2023-04-15T07:18:26;6.13;;;4.15;;
58468;SDS011;44257;44.804;10.220;2023-04-15T07:20:52;7.88;;;4.68;;
58468;SDS011;44257;44.804;10.220;2023-04-15T07:23:18;11.40;;;5.10;;
58468;SDS011;44257;44.804;10.220;2023-04-15T07:25:44;12.48;;;5.72;;
58468;SDS011;44257;44.804;10.220;2023-04-15T07:28:09;8.27;;;4.95;;
58468;SDS011;44257;44.804;10.220;2023-04-15T07:30:35;6.60;;;4.80;;
58468;SDS011;44257;44.804;10.220;2023-04-15T07:33:01;8.43;;;4.00;;
58468;SDS011;44257;44.804;10.220;2023-04-15T07:35:27;6.57;;;4.57;;
58468;SDS011;44257;44.804;10.220;2023-04-15T07:37:53;9.27;;;4.53;;
58468;SDS011;44257;44.804;10.220;2023-04-15T07:40:19;8.23;;;4.00;;
58468;SDS011;44257;44.804;10.220;2023-04-15T07:42:46;8.13;;;3.97;;
58468;SDS011;44257;44.804;10.220;2023-04-15T07:45:13;7.40;;;4.00;;
58468;SDS011;44257;44.804;10.220;2023-04-15T07:47:40;5.93;;;4.05;;
58468;SDS011;44257;44.804;10.220;2023-04-15T07:50:07;5.70;;;4.05;;
58468;SDS011;44257;44.804;10.220;2023-04-15T07:52:35;6.50;;;3.67;;
58468;SDS011;44257;44.804;10.220;2023-04-15T07:55:06;8.38;;;4.10;;
58468;SDS011;44257;44.804;10.220;2023-04-15T07:57:33;7.13;;;3.70;;
58468;SDS011;44257;44.804;10.220;2023-04-15T08:00:00;5.80;;;3.50;;
58468;SDS011;44257;44.804;10.220;2023-04-15T08:02:38;7.72;;;3.75;;
58468;SDS011;44257;44.804;10.220;2023-04-15T08:05:04;5.00;;;3.42;;
58468;SDS011;44257;44.804;10.220;2023-04-15T08:07:32;5.97;;;3.25;;
58468;SDS011;44257;44.804;10.220;2023-04-15T08:09:58;6.47;;;3.95;;
58468;SDS011;44257;44.804;10.220;2023-04-15T08:12:24;6.88;;;3.80;;
58468;SDS011;44257;44.804;10.220;2023-04-15T08:14:50;5.38;;;3.65;;
58468;SDS011;44257;44.804;10.220;2023-04-15T08:17:16;7.95;;;3.65;;
58468;SDS011;44257;44.804;10.220;2023-04-15T08:19:42;7.97;;;4.20;;
58468;SDS011;44257;44.804;10.220;2023-04-15T08:22:08;4.25;;;3.15;;
58468;SDS011;44257;44.804;10.220;2023-04-15T08:24:36;6.38;;;3.88;;
58468;SDS011;44257;44.804;10.220;2023-04-15T08:27:02;7.47;;;4.13;;
58468;SDS011;44257;44.804;10.220;2023-04-15T08:29:30;7.55;;;3.72;;
58468;SDS011;44257;44.804;10.220;2023-04-15T08:31:58;9.25;;;4.25;;
58468;SDS011;44257;44.804;10.220;2023-04-15T08:34:24;4.75;;;3.53;;
58468;SDS011;44257;44.804;10.220;2023-04-15T08:36:50;9.55;;;4.30;;
58468;SDS011;44257;44.804;10.220;2023-04-15T08:39:16;6.15;;;3.95;;
58468;SDS011;44257;44.804;10.220;2023-04-15T08:41:46;6.07;;;3.97;;
58468;SDS011;44257;44.804;10.220;2023-04-15T08:44:18;6.22;;;3.63;;
58468;SDS011;44257;44.804;10.220;2023-04-15T08:46:45;7.03;;;4.10;;
58468;SDS011;44257;44.804;10.220;2023-04-15T08:49:12;7.70;;;4.40;;
58468;SDS011;44257;44.804;10.220;2023-04-15T08:51:40;5.95;;;4.57;;
58468;SDS011;44257;44.804;10.220;2023-04-15T08:54:06;7.43;;;4.28;;
58468;SDS011;44257;44.804;10.220;2023-04-15T08:56:33;9.90;;;4.47;;
58468;SDS011;44257;44.804;10.220;2023-04-15T08:59:01;6.10;;;3.80;;
58468;SDS011;44257;44.804;10.220;2023-04-15T09:01:27;5.53;;;3.92;;
58468;SDS011;44257;44.804;10.220;2023-04-15T09:03:53;5.40;;;4.30;;
58468;SDS011;44257;44.804;10.220;2023-04-15T09:06:22;5.32;;;4.35;;
58468;SDS011;44257;44.804;10.220;2023-04-15T09:08:48;9.60;;;4.38;;
58468;SDS011;44257;44.804;10.220;2023-04-15T09:11:16;7.53;;;4.22;;
58468;SDS011;44257;44.804;10.220;2023-04-15T09:13:42;6.20;;;3.95;;
58468;SDS011;44257;44.804;10.220;2023-04-15T09:16:09;7.28;;;3.70;;
58468;SDS011;44257;44.804;10.220;2023-04-15T09:18:36;6.95;;;4.15;;
58468;SDS011;44257;44.804;10.220;2023-04-15T09:21:03;8.13;;;4.40;;
58468;SDS011;44257;44.804;10.220;2023-04-15T09:23:30;4.97;;;3.17;;
58468;SDS011;44257;44.804;10.220;2023-04-15T09:25:57;5.18;;;3.10;;
58468;SDS011;44257;44.804;10.220;2023-04-15T09:28:24;5.43;;;3.47;;
58468;SDS011;44257;44.804;10.220;2023-04-15T09:30:54;6.32;;;3.13;;
58468;SDS011;44257;44.804;10.220;2023-04-15T09:33:20;5.90;;;3.40;;
58468;SDS011;44257;44.804;10.220;2023-04-15T09:35:56;4.75;;;3.80;;
58468;SDS011;44257;44.804;10.220;2023-04-15T09:38:29;8.43;;;3.97;;
58468;SDS011;44257;44.804;10.220;2023-04-15T09:40:56;6.60;;;3.95;;
58468;SDS011;44257;44.804;10.220;2023-04-15T09:43:35;4.30;;;2.80;;
58468;SDS011;44257;44.804;10.220;2023-04-15T09:46:05;5.28;;;3.47;;
58468;SDS011;44257;44.804;10.220;2023-04-15T09:48:31;5.60;;;3.47;;
58468;SDS011;44257;44.804;10.220;2023-04-15T09:50:57;4.95;;;3.05;;
58468;SDS011;44257;44.804;10.220;2023-04-15T09:53:24;5.30;;;3.10;;
58468;SDS011;44257;44.804;10.220;2023-04-15T09:55:51;5.63;;;2.90;;
58468;SDS011;44257;44.804;10.220;2023-04-15T09:58:19;4.20;;;3.10;;
58468;SDS011;44257;44.804;10.220;2023-04-15T10:00:47;4.45;;;2.97;;
58468;SDS011;44257;44.804;10.220;2023-04-15T10:03:18;7.22;;;2.85;;
58468;SDS011;44257;44.804;10.220;2023-04-15T10:05:49;4.68;;;2.80;;
58468;SDS011;44257;44.804;10.220;2023-04-15T10:08:17;5.22;;;2.97;;
58468;SDS011;44257;44.804;10.220;2023-04-15T10:10:45;5.10;;;2.97;;
58468;SDS011;44257;44.804;10.220;2023-04-15T10:13:12;5.25;;;2.75;;
58468;SDS011;44257;44.804;10.220;2023-04-15T10:15:41;6.68;;;3.78;;
58468;SDS011;44257;44.804;10.220;2023-04-15T10:18:09;4.82;;;2.85;;
58468;SDS011;44257;44.804;10.220;2023-04-15T10:20:37;5.63;;;2.97;;
58468;SDS011;44257;44.804;10.220;2023-04-15T10:23:04;7.35;;;2.97;;
58468;SDS011;44257;44.804;10.220;2023-04-15T10:25:30;5.78;;;3.55;;
58468;SDS011;44257;44.804;10.220;2023-04-15T10:27:58;4.82;;;3.15;;
58468;SDS011;44257;44.804;10.220;2023-04-15T10:30:25;5.72;;;3.08;;
58468;SDS011;44257;44.804;10.220;2023-04-15T10:32:51;6.05;;;2.97;;
58468;SDS011;44257;44.804;10.220;2023-04-15T10:35:17;5.28;;;3.47;;
58468;SDS011;44257;44.804;10.220;2023-04-15T10:37:45;7.75;;;3.97;;
58468;SDS011;44257;44.804;10.220;2023-04-15T10:42:56;6.22;;;3.80;;
58468;SDS011;44257;44.804;10.220;2023-04-15T10:45:24;7.25;;;4.00;;
58468;SDS011;44257;44.804;10.220;2023-04-15T10:47:55;6.07;;;3.83;;
58468;SDS011;44257;44.804;10.220;2023-04-15T10:50:24;6.03;;;3.60;;
58468;SDS011;44257;44.804;10.220;2023-04-15T10:52:52;6.85;;;3.35;;
58468;SDS011;44257;44.804;10.220;2023-04-15T10:55:19;6.00;;;3.75;;
58468;SDS011;44257;44.804;10.220;2023-04-15T10:57:50;5.93;;;4.10;;
58468;SDS011;44257;44.804;10.220;2023-04-15T11:00:19;7.75;;;3.85;;
58468;SDS011;44257;44.804;10.220;2023-04-15T11:02:53;7.93;;;3.83;;
58468;SDS011;44257;44.804;10.220;2023-04-15T11:08:08;6.45;;;3.42;;
58468;SDS011;44257;44.804;10.220;2023-04-15T11:13:46;7.05;;;3.90;;
58468;SDS011;44257;44.804;10.220;2023-04-15T11:15:54;6.38;;;3.58;;
58468;SDS011;44257;44.804;10.220;2023-04-15T11:18:26;6.50;;;3.60;;
58468;SDS011;44257;44.804;10.220;2023-04-15T11:20:55;5.13;;;3.40;;
58468;SDS011;44257;44.804;10.220;2023-04-15T11:23:26;7.20;;;4.03;;
58468;SDS011;44257;44.804;10.220;2023-04-15T11:25:56;5.57;;;3.67;;
58468;SDS011;44257;44.804;10.220;2023-04-15T11:28:26;5.13;;;3.45;;
58468;SDS011;44257;44.804;10.220;2023-04-15T11:30:54;7.25;;;3.50;;
58468;SDS011;44257;44.804;10.220;2023-04-15T11:33:20;5.72;;;3.50;;
58468;SDS011;44257;44.804;10.220;2023-04-15T11:35:47;5.88;;;3.80;;
58468;SDS011;44257;44.804;10.220;2023-04-15T11:38:13;6.35;;;4.07;;
58468;SDS011;44257;44.804;10.220;2023-04-15T11:40:40;5.65;;;3.90;;
58468;SDS011;44257;44.804;10.220;2023-04-15T11:48:17;6.57;;;4.20;;
58468;SDS011;44257;44.804;10.220;2023-04-15T11:50:43;7.25;;;3.45;;
58468;SDS011;44257;44.804;10.220;2023-04-15T11:53:11;6.50;;;3.83;;
58468;SDS011;44257;44.804;10.220;2023-04-15T11:55:44;5.25;;;3.33;;
58468;SDS011;44257;44.804;10.220;2023-04-15T12:00:46;7.28;;;4.13;;
58468;SDS011;44257;44.804;10.220;2023-04-15T12:03:16;10.23;;;3.75;;
58468;SDS011;44257;44.804;10.220;2023-04-15T12:11:20;5.53;;;3.72;;
58468;SDS011;44257;44.804;10.220;2023-04-15T12:13:58;6.15;;;3.67;;
58468;SDS011;44257;44.804;10.220;2023-04-15T12:16:35;6.50;;;3.85;;
58468;SDS011;44257;44.804;10.220;2023-04-15T12:19:08;6.00;;;3.80;;
58468;SDS011;44257;44.804;10.220;2023-04-15T12:21:38;6.20;;;3.33;;
58468;SDS011;44257;44.804;10.220;2023-04-15T12:24:06;4.70;;;3.13;;
58468;SDS011;44257;44.804;10.220;2023-04-15T12:26:34;5.93;;;3.33;;
58468;SDS011;44257;44.804;10.220;2023-04-15T12:29:03;6.30;;;3.85;;
58468;SDS011;44257;44.804;10.220;2023-04-15T12:31:31;21.35;;;5.00;;
58468;SDS011;44257;44.804;10.220;2023-04-15T12:33:58;5.15;;;3.28;;
58468;SDS011;44257;44.804;10.220;2023-04-15T12:36:25;5.93;;;4.05;;
58468;SDS011;44257;44.804;10.220;2023-04-15T12:38:51;7.05;;;3.83;;
58468;SDS011;44257;44.804;10.220;2023-04-15T12:41:18;6.40;;;3.70;;
58468;SDS011;44257;44.804;10.220;2023-04-15T12:43:46;6.57;;;3.20;;
58468;SDS011;44257;44.804;10.220;2023-04-15T12:46:12;6.35;;;3.13;;
58468;SDS011;44257;44.804;10.220;2023-04-15T12:48:39;4.28;;;2.70;;
58468;SDS011;44257;44.804;10.220;2023-04-15T12:51:05;5.18;;;3.10;;
58468;SDS011;44257;44.804;10.220;2023-04-15T12:53:31;3.80;;;2.42;;
58468;SDS011;44257;44.804;10.220;2023-04-15T12:55:57;8.75;;;3.63;;
58468;SDS011;44257;44.804;10.220;2023-04-15T12:58:24;8.48;;;3.90;;
58468;SDS011;44257;44.804;10.220;2023-04-15T13:00:50;5.43;;;3.35;;
58468;SDS011;44257;44.804;10.220;2023-04-15T13:03:16;6.30;;;3.53;;
58468;SDS011;44257;44.804;10.220;2023-04-15T13:05:42;4.97;;;2.80;;
58468;SDS011;44257;44.804;10.220;2023-04-15T13:08:09;6.93;;;3.78;;
58468;SDS011;44257;44.804;10.220;2023-04-15T13:10:34;8.90;;;3.80;;
58468;SDS011;44257;44.804;10.220;2023-04-15T13:13:01;7.13;;;3.60;;
58468;SDS011;44257;44.804;10.220;2023-04-15T13:15:28;5.72;;;3.45;;
58468;SDS011;44257;44.804;10.220;2023-04-15T13:17:54;5.90;;;3.15;;
58468;SDS011;44257;44.804;10.220;2023-04-15T13:20:20;6.18;;;3.15;;
58468;SDS011;44257;44.804;10.220;2023-04-15T13:22:46;6.00;;;3.35;;
58468;SDS011;44257;44.804;10.220;2023-04-15T13:25:12;6.60;;;4.15;;
58468;SDS011;44257;44.804;10.220;2023-04-15T13:27:38;5.10;;;3.33;;
58468;SDS011;44257;44.804;10.220;2023-04-15T13:30:04;4.40;;;2.90;;
58468;SDS011;44257;44.804;10.220;2023-04-15T13:32:31;5.00;;;3.03;;
58468;SDS011;44257;44.804;10.220;2023-04-15T13:34:57;5.47;;;3.10;;
58468;SDS011;44257;44.804;10.220;2023-04-15T13:37:27;4.78;;;3.17;;
58468;SDS011;44257;44.804;10.220;2023-04-15T13:39:54;5.65;;;3.00;;
58468;SDS011;44257;44.804;10.220;2023-04-15T13:42:21;8.50;;;3.50;;
58468;SDS011;44257;44.804;10.220;2023-04-15T13:44:50;4.97;;;3.45;;
58468;SDS011;44257;44.804;10.220;2023-04-15T13:47:18;4.47;;;2.75;;
58468;SDS011;44257;44.804;10.220;2023-04-15T13:49:44;5.57;;;2.83;;
58468;SDS011;44257;44.804;10.220;2023-04-15T13:52:10;4.57;;;2.70;;
58468;SDS011;44257;44.804;10.220;2023-04-15T13:54:37;4.15;;;2.63;;
58468;SDS011;44257;44.804;10.220;2023-04-15T13:57:02;6.32;;;2.80;;
58468;SDS011;44257;44.804;10.220;2023-04-15T13:59:29;4.05;;;2.47;;
58468;SDS011;44257;44.804;10.220;2023-04-15T14:01:55;6.13;;;2.20;;
58468;SDS011;44257;44.804;10.220;2023-04-15T14:04:21;5.03;;;3.10;;
58468;SDS011;44257;44.804;10.220;2023-04-15T14:06:47;3.78;;;2.83;;
58468;SDS011;44257;44.804;10.220;2023-04-15T14:09:13;7.40;;;2.63;;
58468;SDS011;44257;44.804;10.220;2023-04-15T14:11:40;5.13;;;2.40;;
58468;SDS011;44257;44.804;10.220;2023-04-15T14:14:06;4.53;;;2.70;;
58468;SDS011;44257;44.804;10.220;2023-04-15T14:16:32;4.55;;;3.20;;
58468;SDS011;44257;44.804;10.220;2023-04-15T14:18:58;6.18;;;3.20;;
58468;SDS011;44257;44.804;10.220;2023-04-15T14:21:25;5.95;;;3.42;;
58468;SDS011;44257;44.804;10.220;2023-04-15T14:23:52;5.30;;;2.80;;
58468;SDS011;44257;44.804;10.220;2023-04-15T14:26:18;4.10;;;2.60;;
58468;SDS011;44257;44.804;10.220;2023-04-15T14:28:44;4.40;;;3.20;;
58468;SDS011;44257;44.804;10.220;2023-04-15T14:31:10;5.28;;;2.63;;
58468;SDS011;44257;44.804;10.220;2023-04-15T14:33:36;4.68;;;2.40;;
58468;SDS011;44257;44.804;10.220;2023-04-15T14:36:02;3.60;;;2.28;;
58468;SDS011;44257;44.804;10.220;2023-04-15T14:38:28;4.38;;;2.00;;
58468;SDS011;44257;44.804;10.220;2023-04-15T14:40:54;4.68;;;2.50;;
58468;SDS011;44257;44.804;10.220;2023-04-15T14:43:20;4.65;;;1.83;;
58468;SDS011;44257;44.804;10.220;2023-04-15T14:45:46;4.63;;;2.80;;
58468;SDS011;44257;44.804;10.220;2023-04-15T14:48:12;4.88;;;2.92;;
58468;SDS011;44257;44.804;10.220;2023-04-15T14:50:38;5.20;;;2.47;;
58468;SDS011;44257;44.804;10.220;2023-04-15T14:53:04;5.22;;;2.60;;
58468;SDS011;44257;44.804;10.220;2023-04-15T14:55:30;5.15;;;2.30;;